TFM - Tactical Decision Aid (Experimental) INFO Settings

ID: Runway Winds: CIG/VIS Threshold: METAR Board: Map:

KDFW - Dallas/Fort Worth Intl

Updated at: 2103 UTC 31 Jan 2015
Latest TAF at: 1828 UTC 31 Jan 2015

TAF Board

Time2053Z31/22Z31/23Z01/00Z01/01Z01/02Z01/03Z01/04Z01/05Z01/06Z01/07Z01/08Z01/09Z01/10Z
TypeOBSPRVLPRVLPRVLPRVLPRVLPRVLPRVLPRVLPRVLPRVLPRVLPRVLPRVL
VIS1>6666644444444
CIG20201212121277777777
CoverOVCOVCOVCOVCOVCOVCOVCOVCOVCOVCOVCOVCOVCOVC
FltCatIFRMVFRMVFRMVFRMVFRMVFRIFRIFRIFRIFRIFRIFRIFRIFR
WX-RA BRVCSH-RA-RA-RA-RASHRA BRSHRA BRSHRA BRSHRA BRSHRA BRSHRA BRSHRA BRSHRA BR
WDir140130150150150150160160160160160160160160
WSpd1112141414141414141414141414
WGst----------------------------
TAF
KDFW 311828Z 3118/0124 13012KT P6SM VCSH OVC020
  FM312300 15014KT 6SM -RA BKN012 OVC025
  FM010300 16014KT 4SM SHRA BR OVC007
  FM011600 30012KT P6SM OVC025
  FM012000 33020G30KT P6SM SCT035


METAR
KDFW 312053Z COR 14011KT 1SM R17C/P6000FT -RA BR OVC020 11/04 A3001 RMK AO2 SFC VIS 2 1/2 RAB04E27B51 SLP162 P0000 60000 T01060044 56039
KDFW 311953Z 14011KT 10SM OVC020 11/03 A3004 RMK AO2 RAE01 SLP170 P0000 T01110033

TAF/METAR Board Legend

Potential Impact
  None Marginal Slight Moderate High
Visibility (sm) >5 3≤X≤5 1≤X<3 0.5≤X<1 <0.5
Ceiling (100 ft) >30 10≤X≤30 4≤X<10 2≤X<4 <2
Wind Speed (kt) <10 10≤X<20 20≤X<30 ≥30
Wind Gust (kt) <15 15≤X<25 25≤X<35 ≥35
Weather No Wx Reported VCTS -TS,-FZRA TS,FZRA +TS,+FZRA